Terminal Aerodrome Forecast
Issued by NWS Charleston, WV

Current Version | Previous Version | Graphics & Text | Print | Product List | Glossary On
Versions: 1 2 3 4 5 6 7 8 9 10 11 12 13 14 15 16 17 18 19 20 21 22 23 24 25 26 27 28 29 30
000
FTUS41 KRLX 181100
TAFBKW
TAF
KBKW 181126Z 1812/1912 17006KT 6SM SHRA BR OVC035
     FM181400 18006KT 3SM +SHRA BR SCT015 OVC025
     FM182200 24006KT 3SM +SHRA BR VCTS OVC015CB
     FM190000 25005KT 3SM BR VCTS OVC015CB
     FM190300 24004KT 1SM BR VCTS SCT003 OVC008CB
     FM190800 VRB03KT 1SM BR BKN003=

USA.gov is the U.S. government's official web portal to all federal, state and local government web resources and services.